createdAt,value
2022-12-18T00:00:43.860Z,20.78
2022-12-18T00:03:47.047Z,20.70
2022-12-18T00:06:50.202Z,20.67
2022-12-18T00:09:52.970Z,20.64
2022-12-18T00:12:55.734Z,20.55
2022-12-18T00:16:03.111Z,20.56
2022-12-18T00:19:06.643Z,20.51
2022-12-18T00:22:09.421Z,20.45
2022-12-18T00:25:12.232Z,20.42
2022-12-18T00:28:15.000Z,20.41
2022-12-18T00:31:21.630Z,20.32
2022-12-18T00:34:24.496Z,20.29
2022-12-18T00:37:27.251Z,20.26
2022-12-18T00:40:30.090Z,20.22
2022-12-18T00:43:34.581Z,20.21
2022-12-18T00:46:38.759Z,20.18
2022-12-18T00:49:41.490Z,20.14
2022-12-18T00:52:44.707Z,20.10
2022-12-18T00:55:47.826Z,20.14
2022-12-18T00:58:50.917Z,20.06
2022-12-18T01:01:55.412Z,20.05
2022-12-18T01:04:58.301Z,20.05
2022-12-18T01:08:01.556Z,19.97
2022-12-18T01:11:12.770Z,19.96
2022-12-18T01:14:15.566Z,19.92
2022-12-18T01:17:19.761Z,19.94
2022-12-18T01:20:22.574Z,19.91
2022-12-18T01:23:27.506Z,19.92
2022-12-18T01:26:30.981Z,19.90
2022-12-18T01:29:33.774Z,19.90
2022-12-18T01:32:37.964Z,19.88
2022-12-18T01:35:42.702Z,19.86
2022-12-18T01:38:45.535Z,19.86
2022-12-18T01:42:05.231Z,19.88
2022-12-18T01:45:24.352Z,19.86
2022-12-18T01:48:28.554Z,19.86
2022-12-18T01:51:32.040Z,19.86
2022-12-18T01:54:34.807Z,19.85
2022-12-18T01:57:37.887Z,19.83
2022-12-18T02:00:41.102Z,19.76
2022-12-18T02:03:46.454Z,19.78
2022-12-18T02:06:53.242Z,19.78
2022-12-18T02:09:59.332Z,19.73
2022-12-18T02:13:05.062Z,19.80
2022-12-18T02:16:13.180Z,19.79
2022-12-18T02:19:23.862Z,19.71
2022-12-18T02:22:31.944Z,19.73
2022-12-18T02:25:43.029Z,19.71
2022-12-18T02:28:49.037Z,19.72
2022-12-18T02:31:54.367Z,19.70
2022-12-18T02:34:58.630Z,19.83
2022-12-18T02:38:02.167Z,19.70
2022-12-18T02:41:05.631Z,19.68
2022-12-18T02:44:11.034Z,19.63
2022-12-18T02:47:14.770Z,19.60
2022-12-18T02:50:21.183Z,19.59
2022-12-18T02:53:27.597Z,19.58
2022-12-18T02:56:33.664Z,19.57
2022-12-18T02:59:41.742Z,19.56
2022-12-18T03:02:48.587Z,19.60
2022-12-18T03:05:53.057Z,19.72
2022-12-18T03:08:59.858Z,19.79
2022-12-18T03:12:23.146Z,19.86
2022-12-18T03:15:28.921Z,19.98
2022-12-18T03:18:35.720Z,20.04
2022-12-18T03:21:41.044Z,20.12
2022-12-18T03:24:44.010Z,20.14
2022-12-18T03:27:48.650Z,20.24
2022-12-18T03:30:55.182Z,20.29
2022-12-18T03:34:00.007Z,20.30
2022-12-18T03:37:05.980Z,20.33
2022-12-18T03:40:09.241Z,20.36
2022-12-18T03:43:19.010Z,20.37
2022-12-18T03:46:28.235Z,20.43
2022-12-18T03:49:34.642Z,20.41
2022-12-18T03:52:39.273Z,20.49
2022-12-18T03:55:42.467Z,20.47
2022-12-18T03:58:46.282Z,20.46
2022-12-18T04:01:53.519Z,20.52
2022-12-18T04:04:59.771Z,20.53
2022-12-18T04:08:03.235Z,20.53
2022-12-18T04:11:06.145Z,20.54
2022-12-18T04:14:11.853Z,20.54
2022-12-18T04:17:18.687Z,20.57
2022-12-18T04:20:21.657Z,20.60
2022-12-18T04:23:24.462Z,20.62
2022-12-18T04:26:27.222Z,20.63
2022-12-18T04:29:30.208Z,20.67
2022-12-18T04:32:35.299Z,20.67
2022-12-18T04:35:38.087Z,20.68
2022-12-18T04:38:40.860Z,20.70
2022-12-18T04:41:43.602Z,20.71
2022-12-18T04:44:46.400Z,20.72
2022-12-18T04:47:50.568Z,20.76
2022-12-18T04:50:53.302Z,20.73
2022-12-18T04:53:56.109Z,20.77
2022-12-18T04:56:58.872Z,20.77
2022-12-18T05:00:01.633Z,20.80
2022-12-18T05:03:05.896Z,20.82
2022-12-18T05:06:09.196Z,20.83
2022-12-18T05:09:11.962Z,20.83
2022-12-18T05:12:15.748Z,20.83
2022-12-18T05:15:18.586Z,20.85
2022-12-18T05:18:22.704Z,20.85
2022-12-18T05:21:25.500Z,20.85
2022-12-18T05:24:28.388Z,20.90
2022-12-18T05:27:31.113Z,20.85
2022-12-18T05:30:33.933Z,20.87
2022-12-18T05:33:38.472Z,20.88
2022-12-18T05:36:41.579Z,20.87
2022-12-18T05:39:44.784Z,20.86
2022-12-18T05:42:47.500Z,20.91
2022-12-18T05:45:50.738Z,20.92
2022-12-18T05:48:54.856Z,20.94
2022-12-18T05:51:57.661Z,20.97
2022-12-18T05:55:01.064Z,20.95
2022-12-18T05:58:04.406Z,20.97
2022-12-18T06:01:11.572Z,20.97
2022-12-18T06:04:15.742Z,20.97
2022-12-18T06:07:18.653Z,21.02
2022-12-18T06:10:21.481Z,21.02
2022-12-18T06:13:24.268Z,20.99
2022-12-18T06:16:27.275Z,21.01
2022-12-18T06:19:31.542Z,21.01
2022-12-18T06:22:34.564Z,21.02
2022-12-18T06:25:39.405Z,21.04
2022-12-18T06:28:42.192Z,21.03
2022-12-18T06:31:45.037Z,21.05
2022-12-18T06:34:49.183Z,21.05
2022-12-18T06:37:52.003Z,21.03
2022-12-18T06:40:55.201Z,21.04
2022-12-18T06:44:00.023Z,21.07
2022-12-18T06:47:03.224Z,21.06
2022-12-18T06:50:07.958Z,21.06
2022-12-18T06:53:10.761Z,21.04
2022-12-18T06:56:13.612Z,21.01
2022-12-18T06:59:16.656Z,20.96
2022-12-18T07:02:19.786Z,20.90
2022-12-18T07:05:24.033Z,20.83
2022-12-18T07:08:26.820Z,20.80
2022-12-18T07:11:29.665Z,20.79
2022-12-18T07:14:32.437Z,20.75
2022-12-18T07:17:35.225Z,20.74
2022-12-18T07:20:39.390Z,20.71
2022-12-18T07:23:42.549Z,20.69
2022-12-18T07:26:47.706Z,20.64
2022-12-18T07:29:50.718Z,20.59
2022-12-18T07:32:53.478Z,20.59
2022-12-18T07:35:57.614Z,20.67
2022-12-18T07:39:00.361Z,20.66
2022-12-18T07:42:20.948Z,20.69
2022-12-18T07:45:24.241Z,20.79
2022-12-18T07:48:27.397Z,20.79
2022-12-18T07:51:31.559Z,20.85
2022-12-18T07:54:34.379Z,20.90
2022-12-18T07:57:55.456Z,20.92
2022-12-18T08:01:04.618Z,20.93
2022-12-18T08:04:07.430Z,20.95
2022-12-18T08:07:11.553Z,20.96
2022-12-18T08:10:14.598Z,20.98
2022-12-18T08:13:17.309Z,21.01
2022-12-18T08:16:20.861Z,21.00
2022-12-18T08:19:23.696Z,20.99
2022-12-18T08:22:27.954Z,20.99
2022-12-18T08:25:30.704Z,20.99
2022-12-18T08:28:33.465Z,20.99
2022-12-18T08:31:36.343Z,21.03
2022-12-18T08:34:39.206Z,21.03
2022-12-18T08:37:43.316Z,21.06
2022-12-18T08:40:46.500Z,21.06
2022-12-18T08:44:06.967Z,21.07
2022-12-18T08:47:10.177Z,21.06
2022-12-18T08:50:14.057Z,21.20
2022-12-18T08:53:18.410Z,21.23
2022-12-18T08:56:21.611Z,21.12
2022-12-18T08:59:24.645Z,21.15
2022-12-18T09:02:27.641Z,21.16
2022-12-18T09:05:30.620Z,21.12
2022-12-18T09:08:37.720Z,21.15
2022-12-18T09:11:40.921Z,21.15
2022-12-18T09:14:43.701Z,21.17
2022-12-18T09:17:46.422Z,21.17
2022-12-18T09:20:51.252Z,21.19
2022-12-18T09:23:56.686Z,21.18
2022-12-18T09:27:00.431Z,21.17
2022-12-18T09:30:03.439Z,21.17
2022-12-18T09:33:06.291Z,21.15
2022-12-18T09:36:11.289Z,21.16
2022-12-18T09:39:15.429Z,21.18
2022-12-18T09:42:21.963Z,21.16
2022-12-18T09:45:24.840Z,21.16
2022-12-18T09:48:29.381Z,21.17
2022-12-18T09:51:35.773Z,21.18
2022-12-18T09:54:44.627Z,21.21
2022-12-18T09:57:49.871Z,21.21
2022-12-18T10:00:53.686Z,21.19
2022-12-18T10:03:57.228Z,21.23
2022-12-18T10:07:09.116Z,21.24
2022-12-18T10:10:17.803Z,21.22
2022-12-18T10:13:25.241Z,21.24
2022-12-18T10:16:32.056Z,21.26
2022-12-18T10:19:41.816Z,21.25
2022-12-18T10:22:48.131Z,21.24
2022-12-18T10:25:55.934Z,21.27
2022-12-18T10:29:05.309Z,21.27
2022-12-18T10:32:09.162Z,21.24
2022-12-18T10:35:17.655Z,21.24
2022-12-18T10:38:25.245Z,21.25
2022-12-18T10:41:29.763Z,21.27
2022-12-18T10:44:32.541Z,21.27
2022-12-18T10:47:36.305Z,21.31
2022-12-18T10:54:03.682Z,21.25
2022-12-18T10:57:18.630Z,21.28
2022-12-18T11:00:29.111Z,21.27
2022-12-18T11:03:33.821Z,21.24
2022-12-18T11:06:52.828Z,21.29
2022-12-18T11:10:05.089Z,21.28
2022-12-18T11:13:13.879Z,21.26
2022-12-18T11:16:20.484Z,21.30
2022-12-18T11:19:28.464Z,21.28
2022-12-18T11:22:34.848Z,21.32
2022-12-18T11:25:37.703Z,21.30
2022-12-18T11:28:43.814Z,21.33
2022-12-18T11:31:48.559Z,21.38
2022-12-18T11:34:58.882Z,21.31
2022-12-18T11:38:05.573Z,21.32
2022-12-18T11:41:16.611Z,21.32
2022-12-18T11:44:24.996Z,21.37
2022-12-18T11:47:31.470Z,21.33
2022-12-18T11:50:40.241Z,21.31
2022-12-18T11:53:43.014Z,21.34
2022-12-18T11:56:48.274Z,21.35
2022-12-18T11:59:58.054Z,21.36
2022-12-18T12:03:20.426Z,21.37
2022-12-18T12:06:31.157Z,21.34
2022-12-18T12:09:40.030Z,21.33
2022-12-18T12:12:52.338Z,21.35
2022-12-18T12:16:04.290Z,21.35
2022-12-18T12:19:15.773Z,21.38
2022-12-18T12:22:22.961Z,21.34
2022-12-18T12:25:33.161Z,21.46
2022-12-18T12:28:53.370Z,21.43
2022-12-18T12:32:04.733Z,21.42
2022-12-18T12:35:15.415Z,21.40
2022-12-18T12:38:20.298Z,21.44
2022-12-18T12:41:43.346Z,21.44
2022-12-18T12:44:55.782Z,21.46
2022-12-18T12:48:01.654Z,21.44
2022-12-18T12:51:06.332Z,21.44
2022-12-18T12:54:15.240Z,21.46
2022-12-18T12:57:25.544Z,21.48
2022-12-18T13:00:33.318Z,21.53
2022-12-18T13:03:44.007Z,21.48
2022-12-18T13:06:51.388Z,21.46
2022-12-18T13:10:13.343Z,20.48
2022-12-18T13:13:23.247Z,21.15
2022-12-18T13:16:29.484Z,21.22
2022-12-18T13:19:34.726Z,21.22
2022-12-18T13:22:38.928Z,21.16
2022-12-18T13:25:41.774Z,21.15
2022-12-18T13:28:55.093Z,21.06
2022-12-18T13:32:02.160Z,20.90
2022-12-18T13:35:24.356Z,20.94
2022-12-18T13:38:35.966Z,20.90
2022-12-18T13:41:38.775Z,20.84
2022-12-18T13:44:42.459Z,20.80
2022-12-18T13:47:45.498Z,20.76
2022-12-18T13:50:51.091Z,20.78
2022-12-18T13:53:56.569Z,20.70
2022-12-18T13:56:59.442Z,20.55
2022-12-18T14:00:26.780Z,20.48
2022-12-18T14:03:31.633Z,20.53
2022-12-18T14:06:34.572Z,20.54
2022-12-18T14:09:42.295Z,20.48
2022-12-18T14:13:01.988Z,20.61
2022-12-18T14:16:08.304Z,20.50
2022-12-18T14:19:15.321Z,20.65
2022-12-18T14:22:19.930Z,20.44
2022-12-18T14:25:25.012Z,20.42
2022-12-18T14:28:27.870Z,20.40
2022-12-18T14:31:31.561Z,20.38
2022-12-18T14:34:34.349Z,20.35
2022-12-18T14:37:39.756Z,20.31
2022-12-18T14:40:44.047Z,20.27
2022-12-18T14:43:47.937Z,20.21
2022-12-18T14:46:52.483Z,20.21
2022-12-18T14:49:56.094Z,20.21
2022-12-18T14:52:58.873Z,20.17
2022-12-18T14:56:03.242Z,20.14
2022-12-18T14:59:07.159Z,20.08
2022-12-18T15:02:17.850Z,20.19
2022-12-18T15:05:26.396Z,20.09
2022-12-18T15:08:31.114Z,20.04
2022-12-18T15:11:46.217Z,20.02
2022-12-18T15:14:49.005Z,20.00
2022-12-18T15:17:58.547Z,20.00
2022-12-18T15:21:08.254Z,19.97
2022-12-18T15:24:18.782Z,19.95
2022-12-18T15:27:25.072Z,19.93
2022-12-18T15:30:28.910Z,19.91
2022-12-18T15:33:34.213Z,19.92
2022-12-18T15:36:37.541Z,19.91
2022-12-18T15:39:43.285Z,19.87
2022-12-18T15:43:05.221Z,19.85
2022-12-18T15:46:08.896Z,19.86
2022-12-18T15:49:11.686Z,19.82
2022-12-18T15:52:26.952Z,19.77
2022-12-18T15:55:47.743Z,19.76
2022-12-18T15:58:51.879Z,19.76
2022-12-18T16:01:56.275Z,19.73
2022-12-18T16:04:59.211Z,19.88
2022-12-18T16:08:02.030Z,20.01
2022-12-18T16:11:04.865Z,20.10
2022-12-18T16:14:20.527Z,20.19
2022-12-18T16:17:23.375Z,20.30
2022-12-18T16:20:27.163Z,20.32
2022-12-18T16:23:31.980Z,20.40
2022-12-18T16:26:34.747Z,20.48
2022-12-18T16:29:38.973Z,20.59
2022-12-18T16:32:41.807Z,20.58
2022-12-18T16:35:44.543Z,20.70
2022-12-18T16:38:47.329Z,20.70
2022-12-18T16:41:50.724Z,20.69
2022-12-18T16:44:54.878Z,20.71
2022-12-18T16:47:57.639Z,20.72
2022-12-18T16:51:02.434Z,20.77
2022-12-18T16:54:09.730Z,20.78
2022-12-18T16:57:16.542Z,20.99
2022-12-18T17:00:20.942Z,20.80
2022-12-18T17:03:29.764Z,20.78
2022-12-18T17:06:33.426Z,20.75
2022-12-18T17:09:36.313Z,20.77
2022-12-18T17:12:39.095Z,20.74
2022-12-18T17:15:43.309Z,20.75
2022-12-18T17:18:46.415Z,20.79
2022-12-18T17:21:51.260Z,20.77
2022-12-18T17:24:54.022Z,20.78
2022-12-18T17:27:56.778Z,20.80
2022-12-18T17:31:01.192Z,20.84
2022-12-18T17:34:04.753Z,20.86
2022-12-18T17:37:07.514Z,20.90
2022-12-18T17:40:11.663Z,20.90
2022-12-18T17:43:14.495Z,20.90
2022-12-18T17:46:18.852Z,20.91
2022-12-18T17:49:21.798Z,20.90
2022-12-18T17:52:24.518Z,20.93
2022-12-18T17:55:28.373Z,20.94
2022-12-18T17:58:32.492Z,20.95
2022-12-18T18:01:42.414Z,20.92
2022-12-18T18:04:47.043Z,20.95
2022-12-18T18:07:50.783Z,20.94
2022-12-18T18:10:55.786Z,20.94
2022-12-18T18:14:04.668Z,20.97
2022-12-18T18:17:08.829Z,20.96
2022-12-18T18:20:12.390Z,20.97
2022-12-18T18:23:15.450Z,20.98
2022-12-18T18:26:18.227Z,20.95
2022-12-18T18:29:23.050Z,20.95
2022-12-18T18:32:27.508Z,21.04
2022-12-18T18:35:53.279Z,20.97
2022-12-18T18:38:53.842Z,20.98
2022-12-18T18:41:56.578Z,21.00
2022-12-18T18:45:05.205Z,21.01
2022-12-18T18:48:09.425Z,20.96
2022-12-18T18:51:13.048Z,20.92
2022-12-18T18:54:20.992Z,20.89
2022-12-18T18:57:28.720Z,20.82
2022-12-18T19:00:33.085Z,20.78
2022-12-18T19:03:38.822Z,20.73
2022-12-18T19:06:42.797Z,20.71
2022-12-18T19:09:51.923Z,20.65
2022-12-18T19:13:12.143Z,20.58
2022-12-18T19:16:15.149Z,20.55
2022-12-18T19:19:23.375Z,20.50
2022-12-18T19:22:26.522Z,20.43
2022-12-18T19:25:40.548Z,20.41
2022-12-18T19:28:44.667Z,20.34
2022-12-18T19:31:47.627Z,20.31
2022-12-18T19:34:51.913Z,20.29
2022-12-18T19:37:55.296Z,20.23
2022-12-18T19:40:59.950Z,20.18
2022-12-18T19:44:08.337Z,20.13
2022-12-18T19:47:11.588Z,20.09
2022-12-18T19:50:17.126Z,20.06
2022-12-18T19:53:21.632Z,19.98
2022-12-18T19:56:27.005Z,19.96
2022-12-18T19:59:31.107Z,19.94
2022-12-18T20:02:37.481Z,19.93
2022-12-18T20:05:43.462Z,19.91
2022-12-18T20:08:48.815Z,19.89
2022-12-18T20:11:52.685Z,19.89
2022-12-18T20:14:55.495Z,19.86
2022-12-18T20:17:58.283Z,19.82
2022-12-18T20:21:03.437Z,19.78
2022-12-18T20:24:07.381Z,19.78
2022-12-18T20:27:15.228Z,19.81
2022-12-18T20:30:20.147Z,19.73
2022-12-18T20:33:22.917Z,19.70
2022-12-18T20:36:28.183Z,19.65
2022-12-18T20:39:32.183Z,19.64
2022-12-18T20:42:35.497Z,19.66
2022-12-18T20:45:40.269Z,19.64
2022-12-18T20:48:45.837Z,19.73
2022-12-18T20:51:52.484Z,19.85
2022-12-18T20:54:55.241Z,19.95
2022-12-18T20:57:59.883Z,20.00
2022-12-18T21:01:06.701Z,20.13
2022-12-18T21:04:09.515Z,20.29
2022-12-18T21:07:13.707Z,20.35
2022-12-18T21:10:16.461Z,20.42
2022-12-18T21:13:20.569Z,20.41
2022-12-18T21:16:25.534Z,20.61
2022-12-18T21:19:30.368Z,20.70
2022-12-18T21:22:39.312Z,20.67
2022-12-18T21:25:42.162Z,20.79
2022-12-18T21:28:44.922Z,20.67
2022-12-18T21:31:47.938Z,20.73
2022-12-18T21:34:50.750Z,20.69
2022-12-18T21:37:54.867Z,20.75
2022-12-18T21:40:57.629Z,20.75
2022-12-18T21:44:08.731Z,20.74
2022-12-18T21:47:15.169Z,20.72
2022-12-18T21:50:25.251Z,20.77
2022-12-18T21:53:29.400Z,20.75
2022-12-18T21:56:43.982Z,20.73
2022-12-18T21:59:46.953Z,20.71
2022-12-18T22:03:15.440Z,20.74
2022-12-18T22:06:13.142Z,20.75
2022-12-18T22:09:18.494Z,20.77
2022-12-18T22:15:51.892Z,20.82
2022-12-18T22:18:55.056Z,20.82
2022-12-18T22:21:57.800Z,20.80
2022-12-18T22:25:00.782Z,20.85
2022-12-18T22:28:23.626Z,20.83
2022-12-18T22:31:27.756Z,20.90
2022-12-18T22:34:36.338Z,20.91
2022-12-18T22:37:39.491Z,20.91
2022-12-18T22:40:42.353Z,20.87
2022-12-18T22:43:45.395Z,20.89
2022-12-18T22:46:56.223Z,20.86
2022-12-18T22:50:09.809Z,20.85
2022-12-18T22:53:12.573Z,20.83
2022-12-18T22:56:21.310Z,20.86
2022-12-18T22:59:24.472Z,20.87
2022-12-18T23:02:28.685Z,20.87
2022-12-18T23:05:31.963Z,20.90
2022-12-18T23:08:35.269Z,20.89
2022-12-18T23:11:38.052Z,20.94
2022-12-18T23:14:40.811Z,20.93
2022-12-18T23:17:44.974Z,20.93
2022-12-18T23:20:47.712Z,20.94
2022-12-18T23:23:51.663Z,20.95
2022-12-18T23:26:54.439Z,20.94
2022-12-18T23:29:57.178Z,20.94
2022-12-18T23:33:02.900Z,20.94
2022-12-18T23:36:06.365Z,20.98
2022-12-18T23:39:09.372Z,21.00
2022-12-18T23:42:12.141Z,20.96
2022-12-18T23:45:18.093Z,20.93
2022-12-18T23:48:22.626Z,20.91
2022-12-18T23:51:25.797Z,20.86
2022-12-18T23:54:32.910Z,20.80
2022-12-18T23:57:36.613Z,20.76
